sensor_id;sensor_type;location;lat;lon;timestamp;P1;durP1;ratioP1;P2;durP2;ratioP2
5349;SDS011;2697;42.144;24.794;2022-12-20T00:01:49;19.97;;;8.40;;
5349;SDS011;2697;42.144;24.794;2022-12-20T00:04:15;21.63;;;8.23;;
5349;SDS011;2697;42.144;24.794;2022-12-20T00:06:40;19.50;;;9.27;;
5349;SDS011;2697;42.144;24.794;2022-12-20T00:09:06;19.07;;;8.17;;
5349;SDS011;2697;42.144;24.794;2022-12-20T00:11:34;24.40;;;8.77;;
5349;SDS011;2697;42.144;24.794;2022-12-20T00:14:02;21.23;;;8.13;;
5349;SDS011;2697;42.144;24.794;2022-12-20T00:16:27;14.63;;;7.13;;
5349;SDS011;2697;42.144;24.794;2022-12-20T00:18:55;20.80;;;8.50;;
5349;SDS011;2697;42.144;24.794;2022-12-20T00:21:22;20.53;;;8.00;;
5349;SDS011;2697;42.144;24.794;2022-12-20T00:23:47;25.70;;;9.07;;
5349;SDS011;2697;42.144;24.794;2022-12-20T00:26:15;26.17;;;9.10;;
5349;SDS011;2697;42.144;24.794;2022-12-20T00:28:42;21.00;;;9.00;;
5349;SDS011;2697;42.144;24.794;2022-12-20T00:31:09;18.10;;;9.07;;
5349;SDS011;2697;42.144;24.794;2022-12-20T00:33:36;19.47;;;9.00;;
5349;SDS011;2697;42.144;24.794;2022-12-20T00:36:03;28.10;;;9.90;;
5349;SDS011;2697;42.144;24.794;2022-12-20T00:38:29;26.50;;;10.43;;
5349;SDS011;2697;42.144;24.794;2022-12-20T00:41:05;24.03;;;10.37;;
5349;SDS011;2697;42.144;24.794;2022-12-20T00:43:35;22.27;;;10.27;;
5349;SDS011;2697;42.144;24.794;2022-12-20T00:46:01;31.53;;;10.97;;
5349;SDS011;2697;42.144;24.794;2022-12-20T00:48:28;24.87;;;10.33;;
5349;SDS011;2697;42.144;24.794;2022-12-20T00:51:00;26.43;;;11.00;;
5349;SDS011;2697;42.144;24.794;2022-12-20T00:53:27;24.23;;;10.10;;
5349;SDS011;2697;42.144;24.794;2022-12-20T00:55:53;24.90;;;9.97;;
5349;SDS011;2697;42.144;24.794;2022-12-20T00:58:18;23.23;;;10.03;;
5349;SDS011;2697;42.144;24.794;2022-12-20T01:00:44;28.63;;;11.37;;
5349;SDS011;2697;42.144;24.794;2022-12-20T01:03:10;27.97;;;11.37;;
5349;SDS011;2697;42.144;24.794;2022-12-20T01:05:35;20.53;;;8.43;;
5349;SDS011;2697;42.144;24.794;2022-12-20T01:08:01;36.73;;;11.03;;
5349;SDS011;2697;42.144;24.794;2022-12-20T01:10:27;25.10;;;10.67;;
5349;SDS011;2697;42.144;24.794;2022-12-20T01:12:52;21.30;;;10.07;;
5349;SDS011;2697;42.144;24.794;2022-12-20T01:15:18;23.23;;;8.30;;
5349;SDS011;2697;42.144;24.794;2022-12-20T01:17:45;27.40;;;9.63;;
5349;SDS011;2697;42.144;24.794;2022-12-20T01:20:10;19.03;;;8.20;;
5349;SDS011;2697;42.144;24.794;2022-12-20T01:22:36;18.10;;;9.60;;
5349;SDS011;2697;42.144;24.794;2022-12-20T01:25:01;25.53;;;10.53;;
5349;SDS011;2697;42.144;24.794;2022-12-20T01:27:27;30.10;;;10.40;;
5349;SDS011;2697;42.144;24.794;2022-12-20T01:29:53;25.40;;;9.33;;
5349;SDS011;2697;42.144;24.794;2022-12-20T01:32:18;18.93;;;7.87;;
5349;SDS011;2697;42.144;24.794;2022-12-20T01:34:44;23.83;;;10.43;;
5349;SDS011;2697;42.144;24.794;2022-12-20T01:37:09;22.07;;;8.27;;
5349;SDS011;2697;42.144;24.794;2022-12-20T01:39:35;22.87;;;8.80;;
5349;SDS011;2697;42.144;24.794;2022-12-20T01:42:00;25.03;;;9.93;;
5349;SDS011;2697;42.144;24.794;2022-12-20T01:46:51;27.70;;;9.37;;
5349;SDS011;2697;42.144;24.794;2022-12-20T01:49:23;27.37;;;9.87;;
5349;SDS011;2697;42.144;24.794;2022-12-20T01:52:03;26.37;;;9.33;;
5349;SDS011;2697;42.144;24.794;2022-12-20T01:54:51;19.60;;;8.67;;
5349;SDS011;2697;42.144;24.794;2022-12-20T01:57:21;25.60;;;8.87;;
5349;SDS011;2697;42.144;24.794;2022-12-20T01:59:53;17.73;;;7.60;;
5349;SDS011;2697;42.144;24.794;2022-12-20T02:02:21;20.13;;;9.10;;
5349;SDS011;2697;42.144;24.794;2022-12-20T02:04:47;19.43;;;8.50;;
5349;SDS011;2697;42.144;24.794;2022-12-20T02:07:14;23.03;;;8.90;;
5349;SDS011;2697;42.144;24.794;2022-12-20T02:09:44;24.97;;;10.53;;
5349;SDS011;2697;42.144;24.794;2022-12-20T02:12:11;24.40;;;10.83;;
5349;SDS011;2697;42.144;24.794;2022-12-20T02:14:56;23.77;;;8.80;;
5349;SDS011;2697;42.144;24.794;2022-12-20T02:20:21;20.87;;;7.27;;
5349;SDS011;2697;42.144;24.794;2022-12-20T02:31:42;27.00;;;8.60;;
5349;SDS011;2697;42.144;24.794;2022-12-20T02:34:28;25.30;;;10.43;;
5349;SDS011;2697;42.144;24.794;2022-12-20T02:36:57;27.33;;;9.50;;
5349;SDS011;2697;42.144;24.794;2022-12-20T02:39:22;17.70;;;8.43;;
5349;SDS011;2697;42.144;24.794;2022-12-20T02:41:52;28.30;;;11.50;;
5349;SDS011;2697;42.144;24.794;2022-12-20T02:44:22;21.83;;;9.50;;
5349;SDS011;2697;42.144;24.794;2022-12-20T02:47:10;26.87;;;10.57;;
5349;SDS011;2697;42.144;24.794;2022-12-20T02:49:39;22.43;;;9.37;;
5349;SDS011;2697;42.144;24.794;2022-12-20T02:52:07;28.57;;;10.03;;
5349;SDS011;2697;42.144;24.794;2022-12-20T02:54:34;25.10;;;9.37;;
5349;SDS011;2697;42.144;24.794;2022-12-20T02:57:04;23.07;;;8.80;;
5349;SDS011;2697;42.144;24.794;2022-12-20T02:59:37;22.03;;;8.70;;
5349;SDS011;2697;42.144;24.794;2022-12-20T03:02:07;16.93;;;8.07;;
5349;SDS011;2697;42.144;24.794;2022-12-20T03:04:34;24.37;;;10.37;;
5349;SDS011;2697;42.144;24.794;2022-12-20T03:07:04;24.43;;;8.70;;
5349;SDS011;2697;42.144;24.794;2022-12-20T03:09:30;23.03;;;8.97;;
5349;SDS011;2697;42.144;24.794;2022-12-20T03:11:58;19.47;;;8.23;;
5349;SDS011;2697;42.144;24.794;2022-12-20T03:14:23;26.00;;;7.83;;
5349;SDS011;2697;42.144;24.794;2022-12-20T03:16:50;30.13;;;9.33;;
5349;SDS011;2697;42.144;24.794;2022-12-20T03:19:15;26.07;;;9.13;;
5349;SDS011;2697;42.144;24.794;2022-12-20T03:21:41;21.53;;;10.07;;
5349;SDS011;2697;42.144;24.794;2022-12-20T03:24:06;27.97;;;9.60;;
5349;SDS011;2697;42.144;24.794;2022-12-20T03:26:32;27.83;;;10.77;;
5349;SDS011;2697;42.144;24.794;2022-12-20T03:28:57;23.07;;;9.30;;
5349;SDS011;2697;42.144;24.794;2022-12-20T03:31:23;33.93;;;11.13;;
5349;SDS011;2697;42.144;24.794;2022-12-20T03:33:48;31.93;;;9.67;;
5349;SDS011;2697;42.144;24.794;2022-12-20T03:36:13;22.83;;;9.90;;
5349;SDS011;2697;42.144;24.794;2022-12-20T03:38:39;22.43;;;10.60;;
5349;SDS011;2697;42.144;24.794;2022-12-20T03:41:04;25.70;;;10.23;;
5349;SDS011;2697;42.144;24.794;2022-12-20T03:43:30;28.60;;;10.50;;
5349;SDS011;2697;42.144;24.794;2022-12-20T03:45:55;21.67;;;9.30;;
5349;SDS011;2697;42.144;24.794;2022-12-20T03:48:20;21.57;;;8.07;;
5349;SDS011;2697;42.144;24.794;2022-12-20T03:50:46;20.80;;;8.80;;
5349;SDS011;2697;42.144;24.794;2022-12-20T03:53:11;25.87;;;9.33;;
5349;SDS011;2697;42.144;24.794;2022-12-20T03:55:36;19.20;;;9.80;;
5349;SDS011;2697;42.144;24.794;2022-12-20T03:58:02;25.27;;;9.40;;
5349;SDS011;2697;42.144;24.794;2022-12-20T04:00:27;24.33;;;8.77;;
5349;SDS011;2697;42.144;24.794;2022-12-20T04:02:53;25.90;;;9.70;;
5349;SDS011;2697;42.144;24.794;2022-12-20T04:05:19;25.10;;;10.33;;
5349;SDS011;2697;42.144;24.794;2022-12-20T04:07:45;16.23;;;8.13;;
5349;SDS011;2697;42.144;24.794;2022-12-20T04:10:10;24.90;;;8.20;;
5349;SDS011;2697;42.144;24.794;2022-12-20T04:12:36;18.90;;;8.60;;
5349;SDS011;2697;42.144;24.794;2022-12-20T04:15:02;22.67;;;9.40;;
5349;SDS011;2697;42.144;24.794;2022-12-20T04:17:27;19.70;;;8.93;;
5349;SDS011;2697;42.144;24.794;2022-12-20T04:19:53;21.37;;;8.97;;
5349;SDS011;2697;42.144;24.794;2022-12-20T04:22:18;24.43;;;10.07;;
5349;SDS011;2697;42.144;24.794;2022-12-20T04:24:44;18.53;;;9.40;;
5349;SDS011;2697;42.144;24.794;2022-12-20T04:27:09;14.73;;;7.03;;
5349;SDS011;2697;42.144;24.794;2022-12-20T04:29:34;21.63;;;9.47;;
5349;SDS011;2697;42.144;24.794;2022-12-20T04:32:00;19.63;;;7.97;;
5349;SDS011;2697;42.144;24.794;2022-12-20T04:34:25;18.53;;;8.33;;
5349;SDS011;2697;42.144;24.794;2022-12-20T04:36:51;23.40;;;9.63;;
5349;SDS011;2697;42.144;24.794;2022-12-20T04:39:16;21.70;;;7.83;;
5349;SDS011;2697;42.144;24.794;2022-12-20T04:41:42;20.60;;;9.10;;
5349;SDS011;2697;42.144;24.794;2022-12-20T04:44:07;20.77;;;7.83;;
5349;SDS011;2697;42.144;24.794;2022-12-20T04:46:32;20.63;;;7.50;;
5349;SDS011;2697;42.144;24.794;2022-12-20T04:48:58;16.60;;;7.23;;
5349;SDS011;2697;42.144;24.794;2022-12-20T04:51:23;16.63;;;7.30;;
5349;SDS011;2697;42.144;24.794;2022-12-20T04:53:49;24.13;;;8.43;;
5349;SDS011;2697;42.144;24.794;2022-12-20T04:58:45;22.43;;;8.97;;
5349;SDS011;2697;42.144;24.794;2022-12-20T05:01:11;14.40;;;7.33;;
5349;SDS011;2697;42.144;24.794;2022-12-20T05:03:37;19.67;;;8.50;;
5349;SDS011;2697;42.144;24.794;2022-12-20T05:06:03;26.27;;;8.77;;
5349;SDS011;2697;42.144;24.794;2022-12-20T05:08:29;22.07;;;7.90;;
5349;SDS011;2697;42.144;24.794;2022-12-20T05:10:55;18.93;;;8.00;;
5349;SDS011;2697;42.144;24.794;2022-12-20T05:13:20;19.93;;;8.70;;
5349;SDS011;2697;42.144;24.794;2022-12-20T05:15:49;23.40;;;9.30;;
5349;SDS011;2697;42.144;24.794;2022-12-20T05:18:16;23.97;;;10.80;;
5349;SDS011;2697;42.144;24.794;2022-12-20T05:20:41;23.60;;;9.43;;
5349;SDS011;2697;42.144;24.794;2022-12-20T05:23:08;23.20;;;9.10;;
5349;SDS011;2697;42.144;24.794;2022-12-20T05:25:53;24.90;;;10.23;;
5349;SDS011;2697;42.144;24.794;2022-12-20T05:28:27;23.60;;;9.03;;
5349;SDS011;2697;42.144;24.794;2022-12-20T05:30:53;30.20;;;11.20;;
5349;SDS011;2697;42.144;24.794;2022-12-20T05:33:19;26.00;;;8.87;;
5349;SDS011;2697;42.144;24.794;2022-12-20T05:35:44;21.50;;;9.80;;
5349;SDS011;2697;42.144;24.794;2022-12-20T05:38:10;26.13;;;10.57;;
5349;SDS011;2697;42.144;24.794;2022-12-20T05:40:35;15.90;;;8.10;;
5349;SDS011;2697;42.144;24.794;2022-12-20T05:43:01;27.73;;;10.07;;
5349;SDS011;2697;42.144;24.794;2022-12-20T05:45:26;27.57;;;10.97;;
5349;SDS011;2697;42.144;24.794;2022-12-20T05:47:52;33.90;;;11.23;;
5349;SDS011;2697;42.144;24.794;2022-12-20T05:50:17;21.13;;;10.43;;
5349;SDS011;2697;42.144;24.794;2022-12-20T05:52:43;26.00;;;10.40;;
5349;SDS011;2697;42.144;24.794;2022-12-20T05:55:08;28.73;;;9.67;;
5349;SDS011;2697;42.144;24.794;2022-12-20T05:57:34;33.60;;;15.60;;
5349;SDS011;2697;42.144;24.794;2022-12-20T06:00:00;21.53;;;10.03;;
5349;SDS011;2697;42.144;24.794;2022-12-20T06:02:26;13.87;;;7.13;;
5349;SDS011;2697;42.144;24.794;2022-12-20T06:04:52;20.70;;;8.63;;
5349;SDS011;2697;42.144;24.794;2022-12-20T06:07:17;23.03;;;9.00;;
5349;SDS011;2697;42.144;24.794;2022-12-20T06:09:43;32.10;;;10.53;;
5349;SDS011;2697;42.144;24.794;2022-12-20T06:12:09;33.17;;;9.50;;
5349;SDS011;2697;42.144;24.794;2022-12-20T06:14:34;31.17;;;13.23;;
5349;SDS011;2697;42.144;24.794;2022-12-20T06:16:59;35.97;;;13.30;;
5349;SDS011;2697;42.144;24.794;2022-12-20T06:19:25;44.33;;;16.77;;
5349;SDS011;2697;42.144;24.794;2022-12-20T06:21:50;60.47;;;22.83;;
5349;SDS011;2697;42.144;24.794;2022-12-20T06:24:15;50.50;;;21.23;;
5349;SDS011;2697;42.144;24.794;2022-12-20T06:26:41;52.20;;;20.50;;
5349;SDS011;2697;42.144;24.794;2022-12-20T06:29:06;76.10;;;28.33;;
5349;SDS011;2697;42.144;24.794;2022-12-20T06:31:33;73.60;;;26.60;;
5349;SDS011;2697;42.144;24.794;2022-12-20T06:33:58;100.17;;;33.23;;
5349;SDS011;2697;42.144;24.794;2022-12-20T06:36:24;68.20;;;25.93;;
5349;SDS011;2697;42.144;24.794;2022-12-20T06:38:49;56.27;;;22.90;;
5349;SDS011;2697;42.144;24.794;2022-12-20T06:41:15;62.30;;;24.13;;
5349;SDS011;2697;42.144;24.794;2022-12-20T06:43:40;54.90;;;23.03;;
5349;SDS011;2697;42.144;24.794;2022-12-20T06:46:06;48.10;;;17.40;;
5349;SDS011;2697;42.144;24.794;2022-12-20T06:48:31;43.43;;;15.80;;
5349;SDS011;2697;42.144;24.794;2022-12-20T06:50:57;66.37;;;20.80;;
5349;SDS011;2697;42.144;24.794;2022-12-20T06:53:22;55.63;;;19.07;;
5349;SDS011;2697;42.144;24.794;2022-12-20T06:55:47;67.63;;;19.27;;
5349;SDS011;2697;42.144;24.794;2022-12-20T06:58:16;40.60;;;18.70;;
5349;SDS011;2697;42.144;24.794;2022-12-20T07:00:42;36.70;;;15.70;;
5349;SDS011;2697;42.144;24.794;2022-12-20T07:03:07;44.63;;;15.90;;
5349;SDS011;2697;42.144;24.794;2022-12-20T07:05:33;44.87;;;17.10;;
5349;SDS011;2697;42.144;24.794;2022-12-20T07:07:58;44.80;;;15.80;;
5349;SDS011;2697;42.144;24.794;2022-12-20T07:10:24;53.20;;;17.33;;
5349;SDS011;2697;42.144;24.794;2022-12-20T07:12:50;42.97;;;18.10;;
5349;SDS011;2697;42.144;24.794;2022-12-20T07:15:16;53.73;;;18.73;;
5349;SDS011;2697;42.144;24.794;2022-12-20T07:17:42;46.40;;;15.80;;
5349;SDS011;2697;42.144;24.794;2022-12-20T07:20:08;57.33;;;17.10;;
5349;SDS011;2697;42.144;24.794;2022-12-20T07:22:34;56.63;;;17.27;;
5349;SDS011;2697;42.144;24.794;2022-12-20T07:24:59;55.23;;;18.50;;
5349;SDS011;2697;42.144;24.794;2022-12-20T07:27:25;47.10;;;16.73;;
5349;SDS011;2697;42.144;24.794;2022-12-20T07:29:50;64.43;;;19.43;;
5349;SDS011;2697;42.144;24.794;2022-12-20T07:32:15;42.77;;;17.30;;
5349;SDS011;2697;42.144;24.794;2022-12-20T07:34:41;42.33;;;17.23;;
5349;SDS011;2697;42.144;24.794;2022-12-20T07:37:06;50.10;;;16.60;;
5349;SDS011;2697;42.144;24.794;2022-12-20T07:39:32;30.83;;;13.73;;
5349;SDS011;2697;42.144;24.794;2022-12-20T07:41:58;38.47;;;12.47;;
5349;SDS011;2697;42.144;24.794;2022-12-20T07:44:23;35.77;;;12.27;;
5349;SDS011;2697;42.144;24.794;2022-12-20T07:46:49;31.10;;;12.43;;
5349;SDS011;2697;42.144;24.794;2022-12-20T07:49:15;31.17;;;11.67;;
5349;SDS011;2697;42.144;24.794;2022-12-20T07:51:41;40.60;;;13.47;;
5349;SDS011;2697;42.144;24.794;2022-12-20T07:54:11;29.53;;;13.83;;
5349;SDS011;2697;42.144;24.794;2022-12-20T07:56:46;29.70;;;13.30;;
5349;SDS011;2697;42.144;24.794;2022-12-20T07:59:16;23.70;;;10.30;;
5349;SDS011;2697;42.144;24.794;2022-12-20T08:01:48;32.07;;;13.53;;
5349;SDS011;2697;42.144;24.794;2022-12-20T08:04:15;28.20;;;11.57;;
5349;SDS011;2697;42.144;24.794;2022-12-20T08:06:45;29.60;;;12.57;;
5349;SDS011;2697;42.144;24.794;2022-12-20T08:09:12;29.33;;;12.50;;
5349;SDS011;2697;42.144;24.794;2022-12-20T08:11:38;31.03;;;13.47;;
5349;SDS011;2697;42.144;24.794;2022-12-20T08:14:07;32.50;;;13.77;;
5349;SDS011;2697;42.144;24.794;2022-12-20T08:16:33;33.73;;;11.30;;
5349;SDS011;2697;42.144;24.794;2022-12-20T08:18:59;45.60;;;12.40;;
5349;SDS011;2697;42.144;24.794;2022-12-20T08:21:25;27.43;;;11.77;;
5349;SDS011;2697;42.144;24.794;2022-12-20T08:23:50;35.97;;;13.17;;
5349;SDS011;2697;42.144;24.794;2022-12-20T08:26:16;34.27;;;12.20;;
5349;SDS011;2697;42.144;24.794;2022-12-20T08:28:42;40.10;;;12.50;;
5349;SDS011;2697;42.144;24.794;2022-12-20T08:31:08;36.93;;;12.40;;
5349;SDS011;2697;42.144;24.794;2022-12-20T08:33:34;45.17;;;13.90;;
5349;SDS011;2697;42.144;24.794;2022-12-20T08:36:02;28.70;;;11.70;;
5349;SDS011;2697;42.144;24.794;2022-12-20T08:38:30;30.53;;;12.23;;
5349;SDS011;2697;42.144;24.794;2022-12-20T08:41:02;29.77;;;12.40;;
5349;SDS011;2697;42.144;24.794;2022-12-20T08:43:29;26.17;;;13.03;;
5349;SDS011;2697;42.144;24.794;2022-12-20T08:45:55;24.90;;;10.63;;
5349;SDS011;2697;42.144;24.794;2022-12-20T08:48:21;23.70;;;9.93;;
5349;SDS011;2697;42.144;24.794;2022-12-20T08:50:47;28.40;;;12.43;;
5349;SDS011;2697;42.144;24.794;2022-12-20T08:53:17;43.53;;;13.27;;
5349;SDS011;2697;42.144;24.794;2022-12-20T08:55:43;36.90;;;13.63;;
5349;SDS011;2697;42.144;24.794;2022-12-20T08:58:08;27.40;;;11.90;;
5349;SDS011;2697;42.144;24.794;2022-12-20T09:00:34;36.80;;;12.43;;
5349;SDS011;2697;42.144;24.794;2022-12-20T09:03:00;42.13;;;10.67;;
5349;SDS011;2697;42.144;24.794;2022-12-20T09:05:25;36.83;;;11.40;;
5349;SDS011;2697;42.144;24.794;2022-12-20T09:07:51;32.90;;;11.40;;
5349;SDS011;2697;42.144;24.794;2022-12-20T09:10:16;25.47;;;10.33;;
5349;SDS011;2697;42.144;24.794;2022-12-20T09:12:41;27.37;;;11.33;;
5349;SDS011;2697;42.144;24.794;2022-12-20T09:15:07;28.43;;;11.80;;
5349;SDS011;2697;42.144;24.794;2022-12-20T09:17:33;31.80;;;12.40;;
5349;SDS011;2697;42.144;24.794;2022-12-20T09:19:58;32.10;;;14.10;;
5349;SDS011;2697;42.144;24.794;2022-12-20T09:22:23;32.37;;;11.73;;
5349;SDS011;2697;42.144;24.794;2022-12-20T09:24:49;38.13;;;14.43;;
5349;SDS011;2697;42.144;24.794;2022-12-20T09:27:14;35.00;;;12.60;;
5349;SDS011;2697;42.144;24.794;2022-12-20T09:29:40;37.87;;;12.70;;
5349;SDS011;2697;42.144;24.794;2022-12-20T09:32:05;45.40;;;12.60;;
5349;SDS011;2697;42.144;24.794;2022-12-20T09:34:30;39.60;;;11.83;;
5349;SDS011;2697;42.144;24.794;2022-12-20T09:36:56;22.73;;;8.90;;
5349;SDS011;2697;42.144;24.794;2022-12-20T09:39:21;30.50;;;11.40;;
5349;SDS011;2697;42.144;24.794;2022-12-20T09:41:47;33.33;;;12.33;;
5349;SDS011;2697;42.144;24.794;2022-12-20T09:47:06;16.97;;;8.47;;
5349;SDS011;2697;42.144;24.794;2022-12-20T09:49:43;24.73;;;9.37;;
5349;SDS011;2697;42.144;24.794;2022-12-20T09:52:15;23.07;;;10.13;;
5349;SDS011;2697;42.144;24.794;2022-12-20T09:54:57;18.70;;;8.57;;
5349;SDS011;2697;42.144;24.794;2022-12-20T10:00:44;22.17;;;9.27;;
5349;SDS011;2697;42.144;24.794;2022-12-20T10:03:12;19.23;;;7.80;;
5349;SDS011;2697;42.144;24.794;2022-12-20T10:05:48;27.23;;;7.77;;
5349;SDS011;2697;42.144;24.794;2022-12-20T10:08:26;17.97;;;7.57;;
5349;SDS011;2697;42.144;24.794;2022-12-20T10:11:27;18.17;;;7.43;;
5349;SDS011;2697;42.144;24.794;2022-12-20T10:14:20;20.57;;;8.00;;
5349;SDS011;2697;42.144;24.794;2022-12-20T10:16:52;19.27;;;8.73;;
5349;SDS011;2697;42.144;24.794;2022-12-20T10:19:29;21.47;;;9.83;;
5349;SDS011;2697;42.144;24.794;2022-12-20T10:22:07;20.97;;;8.00;;
5349;SDS011;2697;42.144;24.794;2022-12-20T10:24:38;39.70;;;10.13;;
5349;SDS011;2697;42.144;24.794;2022-12-20T10:27:13;22.30;;;9.43;;
5349;SDS011;2697;42.144;24.794;2022-12-20T10:29:41;37.80;;;11.33;;
5349;SDS011;2697;42.144;24.794;2022-12-20T10:32:12;21.30;;;9.93;;
5349;SDS011;2697;42.144;24.794;2022-12-20T10:34:40;19.67;;;10.03;;
5349;SDS011;2697;42.144;24.794;2022-12-20T10:37:19;30.43;;;11.17;;
5349;SDS011;2697;42.144;24.794;2022-12-20T10:39:48;23.63;;;9.13;;
5349;SDS011;2697;42.144;24.794;2022-12-20T10:47:39;24.93;;;9.13;;
5349;SDS011;2697;42.144;24.794;2022-12-20T10:52:42;18.83;;;8.20;;
5349;SDS011;2697;42.144;24.794;2022-12-20T10:57:55;26.23;;;10.30;;
5349;SDS011;2697;42.144;24.794;2022-12-20T11:00:30;19.50;;;8.20;;
5349;SDS011;2697;42.144;24.794;2022-12-20T11:05:52;17.87;;;9.00;;
5349;SDS011;2697;42.144;24.794;2022-12-20T11:08:24;22.50;;;8.53;;
5349;SDS011;2697;42.144;24.794;2022-12-20T11:11:08;26.87;;;9.57;;
5349;SDS011;2697;42.144;24.794;2022-12-20T11:13:37;21.60;;;9.73;;
5349;SDS011;2697;42.144;24.794;2022-12-20T11:16:03;18.73;;;9.50;;
5349;SDS011;2697;42.144;24.794;2022-12-20T11:18:34;21.77;;;8.90;;
5349;SDS011;2697;42.144;24.794;2022-12-20T11:26:57;18.63;;;8.80;;
5349;SDS011;2697;42.144;24.794;2022-12-20T11:29:45;23.27;;;8.97;;
5349;SDS011;2697;42.144;24.794;2022-12-20T11:32:52;24.07;;;9.10;;
5349;SDS011;2697;42.144;24.794;2022-12-20T11:35:47;26.53;;;9.17;;
5349;SDS011;2697;42.144;24.794;2022-12-20T11:41:23;24.57;;;8.90;;
5349;SDS011;2697;42.144;24.794;2022-12-20T11:44:01;22.50;;;10.30;;
5349;SDS011;2697;42.144;24.794;2022-12-20T11:46:49;22.20;;;9.60;;
5349;SDS011;2697;42.144;24.794;2022-12-20T11:59:57;26.00;;;9.30;;
5349;SDS011;2697;42.144;24.794;2022-12-20T12:02:26;19.07;;;8.27;;
5349;SDS011;2697;42.144;24.794;2022-12-20T12:05:02;29.33;;;9.50;;
5349;SDS011;2697;42.144;24.794;2022-12-20T12:07:31;18.17;;;8.23;;
5349;SDS011;2697;42.144;24.794;2022-12-20T12:10:03;13.60;;;7.80;;
5349;SDS011;2697;42.144;24.794;2022-12-20T12:12:44;24.03;;;9.27;;
5349;SDS011;2697;42.144;24.794;2022-12-20T12:17:44;21.07;;;8.60;;
5349;SDS011;2697;42.144;24.794;2022-12-20T12:20:35;25.40;;;8.40;;
5349;SDS011;2697;42.144;24.794;2022-12-20T12:26:11;21.70;;;8.60;;
5349;SDS011;2697;42.144;24.794;2022-12-20T12:28:53;30.40;;;9.23;;
5349;SDS011;2697;42.144;24.794;2022-12-20T12:31:24;21.13;;;8.10;;
5349;SDS011;2697;42.144;24.794;2022-12-20T12:48:26;31.73;;;8.70;;
5349;SDS011;2697;42.144;24.794;2022-12-20T12:50:56;21.10;;;9.50;;
5349;SDS011;2697;42.144;24.794;2022-12-20T12:53:47;29.43;;;9.37;;
5349;SDS011;2697;42.144;24.794;2022-12-20T13:11:49;23.03;;;9.17;;
5349;SDS011;2697;42.144;24.794;2022-12-20T13:16:47;20.03;;;8.10;;
5349;SDS011;2697;42.144;24.794;2022-12-20T13:19:17;19.20;;;10.27;;
5349;SDS011;2697;42.144;24.794;2022-12-20T13:29:56;22.03;;;8.67;;
5349;SDS011;2697;42.144;24.794;2022-12-20T13:45:53;19.13;;;8.57;;
5349;SDS011;2697;42.144;24.794;2022-12-20T13:48:27;28.40;;;9.00;;
5349;SDS011;2697;42.144;24.794;2022-12-20T13:51:06;20.30;;;8.97;;
5349;SDS011;2697;42.144;24.794;2022-12-20T13:53:32;24.87;;;8.47;;
5349;SDS011;2697;42.144;24.794;2022-12-20T13:55:58;17.10;;;8.27;;
5349;SDS011;2697;42.144;24.794;2022-12-20T13:59:04;27.50;;;8.57;;
5349;SDS011;2697;42.144;24.794;2022-12-20T14:01:36;21.93;;;8.40;;
5349;SDS011;2697;42.144;24.794;2022-12-20T14:04:12;21.30;;;9.37;;
5349;SDS011;2697;42.144;24.794;2022-12-20T14:06:37;24.93;;;8.80;;
5349;SDS011;2697;42.144;24.794;2022-12-20T14:09:02;17.70;;;9.33;;
5349;SDS011;2697;42.144;24.794;2022-12-20T14:11:29;16.97;;;8.03;;
5349;SDS011;2697;42.144;24.794;2022-12-20T14:13:56;17.23;;;8.83;;
5349;SDS011;2697;42.144;24.794;2022-12-20T14:16:24;27.00;;;8.53;;
5349;SDS011;2697;42.144;24.794;2022-12-20T14:19:01;48.53;;;9.67;;
5349;SDS011;2697;42.144;24.794;2022-12-20T14:21:28;28.50;;;9.20;;
5349;SDS011;2697;42.144;24.794;2022-12-20T14:23:55;26.80;;;8.23;;
5349;SDS011;2697;42.144;24.794;2022-12-20T14:26:23;33.53;;;9.23;;
5349;SDS011;2697;42.144;24.794;2022-12-20T14:28:52;26.27;;;8.73;;
5349;SDS011;2697;42.144;24.794;2022-12-20T14:31:39;28.30;;;9.27;;
5349;SDS011;2697;42.144;24.794;2022-12-20T14:36:44;27.33;;;10.37;;
5349;SDS011;2697;42.144;24.794;2022-12-20T14:39:22;26.23;;;10.37;;
5349;SDS011;2697;42.144;24.794;2022-12-20T14:41:54;27.57;;;10.27;;
5349;SDS011;2697;42.144;24.794;2022-12-20T14:44:38;26.10;;;10.77;;
5349;SDS011;2697;42.144;24.794;2022-12-20T14:47:10;27.23;;;11.00;;
5349;SDS011;2697;42.144;24.794;2022-12-20T14:49:45;25.03;;;9.47;;
5349;SDS011;2697;42.144;24.794;2022-12-20T14:52:14;37.10;;;10.20;;
5349;SDS011;2697;42.144;24.794;2022-12-20T14:57:47;25.53;;;9.40;;
5349;SDS011;2697;42.144;24.794;2022-12-20T15:00:31;20.67;;;8.70;;
5349;SDS011;2697;42.144;24.794;2022-12-20T15:03:17;29.20;;;10.87;;
5349;SDS011;2697;42.144;24.794;2022-12-20T15:13:19;32.07;;;9.93;;
5349;SDS011;2697;42.144;24.794;2022-12-20T15:15:48;25.33;;;9.23;;
5349;SDS011;2697;42.144;24.794;2022-12-20T15:18:14;20.50;;;10.27;;
5349;SDS011;2697;42.144;24.794;2022-12-20T15:20:42;23.87;;;9.17;;
5349;SDS011;2697;42.144;24.794;2022-12-20T15:23:16;22.80;;;10.43;;
5349;SDS011;2697;42.144;24.794;2022-12-20T15:25:44;20.87;;;10.80;;
5349;SDS011;2697;42.144;24.794;2022-12-20T15:28:11;21.60;;;9.53;;
5349;SDS011;2697;42.144;24.794;2022-12-20T15:30:41;28.73;;;10.63;;
5349;SDS011;2697;42.144;24.794;2022-12-20T15:33:10;20.40;;;10.30;;
5349;SDS011;2697;42.144;24.794;2022-12-20T15:35:40;32.20;;;11.93;;
5349;SDS011;2697;42.144;24.794;2022-12-20T15:38:08;46.07;;;12.50;;
5349;SDS011;2697;42.144;24.794;2022-12-20T15:40:38;32.03;;;12.10;;
5349;SDS011;2697;42.144;24.794;2022-12-20T15:43:04;58.57;;;17.80;;
5349;SDS011;2697;42.144;24.794;2022-12-20T15:45:29;87.67;;;21.17;;
5349;SDS011;2697;42.144;24.794;2022-12-20T15:47:56;84.50;;;25.30;;
5349;SDS011;2697;42.144;24.794;2022-12-20T15:50:21;83.53;;;29.87;;
5349;SDS011;2697;42.144;24.794;2022-12-20T15:52:47;79.80;;;26.40;;
5349;SDS011;2697;42.144;24.794;2022-12-20T15:55:12;70.00;;;27.33;;
5349;SDS011;2697;42.144;24.794;2022-12-20T15:57:38;101.90;;;28.80;;
5349;SDS011;2697;42.144;24.794;2022-12-20T16:00:03;81.17;;;29.70;;
5349;SDS011;2697;42.144;24.794;2022-12-20T16:02:30;98.53;;;32.40;;
5349;SDS011;2697;42.144;24.794;2022-12-20T16:04:57;104.90;;;34.33;;
5349;SDS011;2697;42.144;24.794;2022-12-20T16:07:23;93.63;;;36.13;;
5349;SDS011;2697;42.144;24.794;2022-12-20T16:09:48;158.23;;;50.37;;
5349;SDS011;2697;42.144;24.794;2022-12-20T16:12:18;105.73;;;33.70;;
5349;SDS011;2697;42.144;24.794;2022-12-20T16:14:48;87.87;;;24.33;;
5349;SDS011;2697;42.144;24.794;2022-12-20T16:17:15;86.53;;;30.40;;
5349;SDS011;2697;42.144;24.794;2022-12-20T16:19:40;67.10;;;20.23;;
5349;SDS011;2697;42.144;24.794;2022-12-20T16:22:19;90.67;;;17.43;;
5349;SDS011;2697;42.144;24.794;2022-12-20T16:24:46;85.47;;;25.70;;
5349;SDS011;2697;42.144;24.794;2022-12-20T16:27:12;203.97;;;50.40;;
5349;SDS011;2697;42.144;24.794;2022-12-20T16:29:37;247.60;;;53.97;;
5349;SDS011;2697;42.144;24.794;2022-12-20T16:32:08;242.50;;;61.97;;
5349;SDS011;2697;42.144;24.794;2022-12-20T16:34:40;83.43;;;24.03;;
5349;SDS011;2697;42.144;24.794;2022-12-20T16:37:06;77.20;;;25.73;;
5349;SDS011;2697;42.144;24.794;2022-12-20T16:39:31;85.73;;;25.50;;
5349;SDS011;2697;42.144;24.794;2022-12-20T16:41:57;154.10;;;40.20;;
5349;SDS011;2697;42.144;24.794;2022-12-20T16:44:22;136.07;;;39.90;;
5349;SDS011;2697;42.144;24.794;2022-12-20T16:46:48;118.77;;;35.77;;
5349;SDS011;2697;42.144;24.794;2022-12-20T16:49:13;60.87;;;21.33;;
5349;SDS011;2697;42.144;24.794;2022-12-20T16:51:41;65.37;;;20.70;;
5349;SDS011;2697;42.144;24.794;2022-12-20T16:54:12;76.27;;;20.67;;
5349;SDS011;2697;42.144;24.794;2022-12-20T16:56:44;58.63;;;20.27;;
5349;SDS011;2697;42.144;24.794;2022-12-20T16:59:15;69.77;;;22.00;;